Clarksville, OH

3:03 AM EST on March 05, 2015 (GMT -0500)
Airborne | Change Station
CLOSE
Current Station
Airport
Location: Wilmington,
Elevation: 1076 ft
Nearby Weather Stations

Elev 1076 ft 39.42 °N, 83.82 °W | Updated 9 minutes ago

Overcast
Overcast
19 °F
Feels Like 6 °F
N
14
Wind Variable Wind from North
Gusts 23 mph

Today
High -- | Low -- °F
--% Chance of Precip.
Yesterday
High -- | Low -- °F
Precip. -- in
7:03 AM 6:32 PM
Full, 100% visible
Pressure 30.30 in
Visibility 10.0 miles
Clouds Overcast 5000 ft
Windchill 6 °F
Dew Point 7 °F
Humidity 59%
Rainfall 0.00 in
Snow Depth Not available.
UV 0 out of 12
Pollen .70 out of 12
Air Quality Not available.
Flu Activity Not available.
METAR KILN 050754Z AUTO 36012G20KT 10SM OVC050 M07/M14 A3021 RMK AO2 SLP260 T10721139

More Conditions Fewer Conditions

Pressure 30.30 in
Visibility 10.0 miles
Clouds Overcast 5000 ft
Windchill 6 °F
Dew Point 7 °F
Humidity 59%
Rainfall 0.00 in
Snow Depth Not available.
UV 0 out of 12
Pollen .70 out of 12
Air Quality Not available.
Flu Activity Not available.
METAR KILN 050754Z AUTO 36012G20KT 10SM OVC050 M07/M14 A3021 RMK AO2 SLP260 T10721139

More Conditions Fewer Conditions

10-Day Weather Forecast

Almanac

Astronomy

Mar. 05, 2015 Rise Set
Actual Time
Civil Twilight
Nautical Twilight
Astronomical Twilight
Moon
Length of Visible Light
Length of Day
Tomorrow will be .
, % of the Moon is Illuminated

Today's Extremes

State Highs State Lows

Community

WunderPhotos

Upload Photos

1,802,704 photos uploaded!

WunderBlogs® & News

Nearby

Air Quality

  Air Quality AQ Index Pollutant
Not available.

Snow Depth

Station Depth Elevation

Earthquake Activity

City Distance Mag. Time & Date
Minimum magnitude displayed is 2.5.

Coastal Water Temperatures

Place Temperature

Nearby Weather Stations

Winter Storm Warning
Statement as of 10:34 PM EST on March 04, 2015

... Winter Storm Warning remains in effect until 1 PM EST
Thursday...

* hazard types... heavy snow.

* Accumulations... snow accumulation of 3 to 6 inches.

* Timing... periods of snow will continue through the overnight
period... tapering off near sunrise.

* Impacts... hazardous travel conditions are expected due to
reduced visibilities and snow accumulations.

Precautionary/preparedness actions...

Remember... a Winter Storm Warning means severe winter weather
conditions are imminent or highly likely. Stay tuned to NOAA
Weather Radio or your favorite source of information for the
latest updates. Additional details can also be found at
www.Weather.Gov/iln as well as on our facebook and twitter pages.